Aeroporto :
LOGIN :

Iscrizione | Disclaimer

   EN    FR    IT 

 










Sommario :    VFR   VFR Marginale   IFR   IFR Intensivo   IFR Molto Intensivo
Visibilità : 
Base nubi : 
>= 8 km
>= 3000ft
5 / 8 km
1000 / 3000 ft
1500m / 5 km
500 / 1000 ft
800 / 1500m
200 / 500 ft
< 800m
< 200 ft
Simboli :   Temporali  Nebbia  Neve Forte  Precipitazioni Forti  Vento > 20 kt
SIGMETs :   Varie  Temporali  Ghiacco  Turbolenza  Onda orograficha  Ceneri Vulcaniche






- Altitudine del aeroporto : 26 ft
- Codice IATA : BIA


LFKB - Bastia

ULTIMO METAR :
  • 031330Z AUTO 11007KT 070V150 9999 FEW029/// ///CB 23/17 Q1010 BECMG SCT055

METARs OBSOLETI :
  • 031300Z AUTO 12009KT 090V150 9999 FEW030/// SCT070/// ///CB 23/17 Q1010 BECMG SCT055
  • 031230Z AUTO 12010KT 090V150 9999 FEW034/// ///CB 23/16 Q1010 BECMG SCT055
  • 031200Z AUTO 12010KT 080V160 9999 FEW033/// ///CB 24/16 Q1010 BECMG SCT055
  • 031130Z AUTO 13010KT 090V160 CAVOK 23/17 Q1011 NOSIG
  • 031100Z AUTO 13011KT 100V160 9999 FEW034 23/17 Q1011 NOSIG

TAF TAF LFKB
Valido dal 03 a 09 ore il 04 a 09 ore UTC


030800Z 0309/0409 05004KT CAVOK TX25/0313Z TN15/0403Z
BECMG 0309/0311 12010KT SCT055
BECMG 0317/0320 22005KT CAVOK
TEMPO 0401/0409 SHRA SCT060TCU BKN090
BECMG 0406/0409 16010G20KT
ATIS : +33 4 95 59 19 40



MetMap, La meteo Aeronautica in un colpo d'occhio ! - Copyright ORBIFLY Dicembre 2007 - Disclaimer

ORBIFLY MET'MAP TEAM :

Programmazione e sviluppo : Alexandra Zaïnal
Concezione : Baudouin d'Aumeries
Aiuto per la programmazione : Marc-Olivier Méhu
Supporto tecnico e logistico : Manuel Goepfert
Aiuto per la traduzione : Arnaldo La Scala

Contatto : metmap@orbifly.com




FONTI E CREDITI :

   NOAA